sensor_id;sensor_type;location;lat;lon;timestamp;temperature;humidity
1411;DHT22;700;51.906;8.404;2023-05-16T00:01:45;15.40;99.90
1411;DHT22;700;51.906;8.404;2023-05-16T00:06:48;15.40;99.90
1411;DHT22;700;51.906;8.404;2023-05-16T00:11:49;15.30;99.90
1411;DHT22;700;51.906;8.404;2023-05-16T00:16:50;15.20;99.90
1411;DHT22;700;51.906;8.404;2023-05-16T00:21:51;15.30;99.90
1411;DHT22;700;51.906;8.404;2023-05-16T00:26:54;15.30;99.90
1411;DHT22;700;51.906;8.404;2023-05-16T00:31:55;15.30;99.90
1411;DHT22;700;51.906;8.404;2023-05-16T00:36:56;15.20;99.90
1411;DHT22;700;51.906;8.404;2023-05-16T00:41:56;15.20;99.90
1411;DHT22;700;51.906;8.404;2023-05-16T00:47:00;15.20;99.90
1411;DHT22;700;51.906;8.404;2023-05-16T00:52:03;15.10;99.90
1411;DHT22;700;51.906;8.404;2023-05-16T00:57:05;15.10;99.90
1411;DHT22;700;51.906;8.404;2023-05-16T01:02:09;15.10;99.90
1411;DHT22;700;51.906;8.404;2023-05-16T01:07:09;15.00;99.90
1411;DHT22;700;51.906;8.404;2023-05-16T01:12:30;15.00;99.90
1411;DHT22;700;51.906;8.404;2023-05-16T01:27:54;14.70;99.90
1411;DHT22;700;51.906;8.404;2023-05-16T01:32:56;14.80;99.90
1411;DHT22;700;51.906;8.404;2023-05-16T01:38:16;14.80;99.90
1411;DHT22;700;51.906;8.404;2023-05-16T01:43:28;14.90;99.90
1411;DHT22;700;51.906;8.404;2023-05-16T01:48:42;14.80;99.90
1411;DHT22;700;51.906;8.404;2023-05-16T01:53:47;14.90;99.90
1411;DHT22;700;51.906;8.404;2023-05-16T01:58:50;15.00;99.90
1411;DHT22;700;51.906;8.404;2023-05-16T02:03:52;14.90;99.90
1411;DHT22;700;51.906;8.404;2023-05-16T02:08:55;14.90;99.90
1411;DHT22;700;51.906;8.404;2023-05-16T02:13:58;14.80;99.90
1411;DHT22;700;51.906;8.404;2023-05-16T02:19:01;14.60;99.90
1411;DHT22;700;51.906;8.404;2023-05-16T02:24:06;14.40;99.90
1411;DHT22;700;51.906;8.404;2023-05-16T02:29:08;14.10;99.90
1411;DHT22;700;51.906;8.404;2023-05-16T02:34:11;13.80;99.90
1411;DHT22;700;51.906;8.404;2023-05-16T02:39:14;13.70;99.90
1411;DHT22;700;51.906;8.404;2023-05-16T02:44:15;13.50;99.90
1411;DHT22;700;51.906;8.404;2023-05-16T02:49:18;13.60;99.90
1411;DHT22;700;51.906;8.404;2023-05-16T02:54:20;13.60;99.90
1411;DHT22;700;51.906;8.404;2023-05-16T02:59:21;13.40;99.90
1411;DHT22;700;51.906;8.404;2023-05-16T03:04:24;13.40;99.90
1411;DHT22;700;51.906;8.404;2023-05-16T03:09:25;13.50;99.90
1411;DHT22;700;51.906;8.404;2023-05-16T03:14:28;13.50;99.90
1411;DHT22;700;51.906;8.404;2023-05-16T03:19:29;13.50;99.90
1411;DHT22;700;51.906;8.404;2023-05-16T03:24:31;13.60;99.90
1411;DHT22;700;51.906;8.404;2023-05-16T03:29:35;13.60;99.90
1411;DHT22;700;51.906;8.404;2023-05-16T03:34:38;13.60;99.90
1411;DHT22;700;51.906;8.404;2023-05-16T03:39:41;13.60;99.90
1411;DHT22;700;51.906;8.404;2023-05-16T03:44:44;13.70;99.90
1411;DHT22;700;51.906;8.404;2023-05-16T03:49:45;13.60;99.90
1411;DHT22;700;51.906;8.404;2023-05-16T03:54:45;13.60;99.90
1411;DHT22;700;51.906;8.404;2023-05-16T03:59:49;13.60;99.90
1411;DHT22;700;51.906;8.404;2023-05-16T04:04:49;13.40;99.90
1411;DHT22;700;51.906;8.404;2023-05-16T04:09:51;13.50;99.90
1411;DHT22;700;51.906;8.404;2023-05-16T04:14:51;13.40;99.90
1411;DHT22;700;51.906;8.404;2023-05-16T04:19:54;13.40;99.90
1411;DHT22;700;51.906;8.404;2023-05-16T04:24:57;13.20;99.90
1411;DHT22;700;51.906;8.404;2023-05-16T04:30:00;13.20;99.90
1411;DHT22;700;51.906;8.404;2023-05-16T04:35:02;13.20;99.90
1411;DHT22;700;51.906;8.404;2023-05-16T04:40:03;13.00;99.90
1411;DHT22;700;51.906;8.404;2023-05-16T04:45:04;13.20;99.90
1411;DHT22;700;51.906;8.404;2023-05-16T04:50:06;13.20;99.90
1411;DHT22;700;51.906;8.404;2023-05-16T04:55:09;13.10;99.90
1411;DHT22;700;51.906;8.404;2023-05-16T05:00:10;13.20;99.90
1411;DHT22;700;51.906;8.404;2023-05-16T05:05:11;13.20;99.90
1411;DHT22;700;51.906;8.404;2023-05-16T05:10:15;13.10;99.90
1411;DHT22;700;51.906;8.404;2023-05-16T05:15:15;13.10;99.90
1411;DHT22;700;51.906;8.404;2023-05-16T05:20:16;13.10;99.90
1411;DHT22;700;51.906;8.404;2023-05-16T05:25:16;13.00;99.90
1411;DHT22;700;51.906;8.404;2023-05-16T05:30:17;13.00;99.90
1411;DHT22;700;51.906;8.404;2023-05-16T05:35:20;12.80;99.90
1411;DHT22;700;51.906;8.404;2023-05-16T05:40:21;13.00;99.90
1411;DHT22;700;51.906;8.404;2023-05-16T05:45:23;13.20;99.90
1411;DHT22;700;51.906;8.404;2023-05-16T05:50:24;13.40;99.90
1411;DHT22;700;51.906;8.404;2023-05-16T05:55:27;13.30;99.90
1411;DHT22;700;51.906;8.404;2023-05-16T06:00:28;13.40;99.90
1411;DHT22;700;51.906;8.404;2023-05-16T06:05:28;13.60;99.90
1411;DHT22;700;51.906;8.404;2023-05-16T06:10:29;13.50;99.90
1411;DHT22;700;51.906;8.404;2023-05-16T06:15:34;13.50;99.90
1411;DHT22;700;51.906;8.404;2023-05-16T06:20:37;13.50;99.90
1411;DHT22;700;51.906;8.404;2023-05-16T06:25:38;13.70;99.90
1411;DHT22;700;51.906;8.404;2023-05-16T06:30:43;13.80;99.90
1411;DHT22;700;51.906;8.404;2023-05-16T06:35:48;13.90;99.90
1411;DHT22;700;51.906;8.404;2023-05-16T06:40:49;13.70;99.90
1411;DHT22;700;51.906;8.404;2023-05-16T06:45:50;14.00;99.90
1411;DHT22;700;51.906;8.404;2023-05-16T06:50:52;14.50;99.90
1411;DHT22;700;51.906;8.404;2023-05-16T06:55:53;14.80;99.90
1411;DHT22;700;51.906;8.404;2023-05-16T07:00:54;15.20;99.90
1411;DHT22;700;51.906;8.404;2023-05-16T07:05:57;15.60;99.90
1411;DHT22;700;51.906;8.404;2023-05-16T07:10:58;15.60;99.90
1411;DHT22;700;51.906;8.404;2023-05-16T07:15:58;15.70;99.90
1411;DHT22;700;51.906;8.404;2023-05-16T07:21:01;16.10;99.90
1411;DHT22;700;51.906;8.404;2023-05-16T07:26:02;16.40;99.90
1411;DHT22;700;51.906;8.404;2023-05-16T07:31:03;16.50;99.90
1411;DHT22;700;51.906;8.404;2023-05-16T07:36:07;16.40;99.90
1411;DHT22;700;51.906;8.404;2023-05-16T07:41:07;16.20;99.90
1411;DHT22;700;51.906;8.404;2023-05-16T07:46:13;16.10;99.90
1411;DHT22;700;51.906;8.404;2023-05-16T07:51:16;15.70;99.90
1411;DHT22;700;51.906;8.404;2023-05-16T07:56:17;15.80;99.90
1411;DHT22;700;51.906;8.404;2023-05-16T08:01:20;15.90;99.90
1411;DHT22;700;51.906;8.404;2023-05-16T08:06:21;16.40;99.90
1411;DHT22;700;51.906;8.404;2023-05-16T08:11:26;16.60;99.90
1411;DHT22;700;51.906;8.404;2023-05-16T08:16:27;16.70;99.90
1411;DHT22;700;51.906;8.404;2023-05-16T08:21:27;16.60;99.90
1411;DHT22;700;51.906;8.404;2023-05-16T08:26:29;16.30;99.90
1411;DHT22;700;51.906;8.404;2023-05-16T08:31:29;16.40;99.90
1411;DHT22;700;51.906;8.404;2023-05-16T08:36:30;16.40;99.90
1411;DHT22;700;51.906;8.404;2023-05-16T08:41:36;16.40;99.90
1411;DHT22;700;51.906;8.404;2023-05-16T08:46:42;16.60;99.90
1411;DHT22;700;51.906;8.404;2023-05-16T08:51:46;17.20;98.70
1411;DHT22;700;51.906;8.404;2023-05-16T08:56:48;17.50;99.20
1411;DHT22;700;51.906;8.404;2023-05-16T09:01:58;17.50;99.50
1411;DHT22;700;51.906;8.404;2023-05-16T09:06:58;17.40;99.00
1411;DHT22;700;51.906;8.404;2023-05-16T09:12:01;17.50;99.40
1411;DHT22;700;51.906;8.404;2023-05-16T09:17:07;17.60;97.80
1411;DHT22;700;51.906;8.404;2023-05-16T09:22:12;18.30;97.10
1411;DHT22;700;51.906;8.404;2023-05-16T09:27:15;19.10;93.60
1411;DHT22;700;51.906;8.404;2023-05-16T09:32:17;19.80;91.00
1411;DHT22;700;51.906;8.404;2023-05-16T09:37:18;19.80;90.40
1411;DHT22;700;51.906;8.404;2023-05-16T09:42:24;25.60;71.20
1411;DHT22;700;51.906;8.404;2023-05-16T09:47:26;28.60;53.40
1411;DHT22;700;51.906;8.404;2023-05-16T09:52:28;27.10;47.50
1411;DHT22;700;51.906;8.404;2023-05-16T09:57:28;28.10;47.30
1411;DHT22;700;51.906;8.404;2023-05-16T10:02:30;26.10;47.30
1411;DHT22;700;51.906;8.404;2023-05-16T10:07:34;27.80;46.40
1411;DHT22;700;51.906;8.404;2023-05-16T10:12:35;31.20;39.80
1411;DHT22;700;51.906;8.404;2023-05-16T10:17:41;33.80;34.60
1411;DHT22;700;51.906;8.404;2023-05-16T10:22:43;36.00;32.00
1411;DHT22;700;51.906;8.404;2023-05-16T10:27:48;39.40;29.20
1411;DHT22;700;51.906;8.404;2023-05-16T10:32:50;41.80;24.90
1411;DHT22;700;51.906;8.404;2023-05-16T10:37:54;42.90;23.80
1411;DHT22;700;51.906;8.404;2023-05-16T10:42:56;40.90;22.30
1411;DHT22;700;51.906;8.404;2023-05-16T10:48:02;34.90;25.90
1411;DHT22;700;51.906;8.404;2023-05-16T10:53:31;31.50;29.70
1411;DHT22;700;51.906;8.404;2023-05-16T11:14:23;29.20;32.20
1411;DHT22;700;51.906;8.404;2023-05-16T11:24:35;37.50;27.20
1411;DHT22;700;51.906;8.404;2023-05-16T11:29:37;40.90;24.00
1411;DHT22;700;51.906;8.404;2023-05-16T11:34:38;38.10;24.50
1411;DHT22;700;51.906;8.404;2023-05-16T11:39:43;33.90;25.80
1411;DHT22;700;51.906;8.404;2023-05-16T11:44:46;31.90;28.50
1411;DHT22;700;51.906;8.404;2023-05-16T11:49:56;31.30;29.70
1411;DHT22;700;51.906;8.404;2023-05-16T11:54:57;35.50;27.30
1411;DHT22;700;51.906;8.404;2023-05-16T12:00:13;39.40;24.60
1411;DHT22;700;51.906;8.404;2023-05-16T12:05:18;40.40;22.20
1411;DHT22;700;51.906;8.404;2023-05-16T12:10:21;42.80;21.00
1411;DHT22;700;51.906;8.404;2023-05-16T12:15:21;42.10;20.60
1411;DHT22;700;51.906;8.404;2023-05-16T12:20:22;41.90;20.70
1411;DHT22;700;51.906;8.404;2023-05-16T12:25:34;40.70;20.90
1411;DHT22;700;51.906;8.404;2023-05-16T12:30:42;42.40;20.50
1411;DHT22;700;51.906;8.404;2023-05-16T12:35:45;43.60;19.50
1411;DHT22;700;51.906;8.404;2023-05-16T12:40:47;44.50;19.20
1411;DHT22;700;51.906;8.404;2023-05-16T12:45:55;41.10;19.30
1411;DHT22;700;51.906;8.404;2023-05-16T12:50:56;35.20;22.40
1411;DHT22;700;51.906;8.404;2023-05-16T12:55:59;30.50;25.40
1411;DHT22;700;51.906;8.404;2023-05-16T13:00:59;27.20;30.80
1411;DHT22;700;51.906;8.404;2023-05-16T13:06:03;24.90;32.50
1411;DHT22;700;51.906;8.404;2023-05-16T13:11:06;23.80;34.80
1411;DHT22;700;51.906;8.404;2023-05-16T13:16:07;22.50;35.60
1411;DHT22;700;51.906;8.404;2023-05-16T13:21:09;21.50;38.00
1411;DHT22;700;51.906;8.404;2023-05-16T13:26:10;22.40;40.30
1411;DHT22;700;51.906;8.404;2023-05-16T13:31:13;24.70;35.70
1411;DHT22;700;51.906;8.404;2023-05-16T13:36:16;23.20;37.90
1411;DHT22;700;51.906;8.404;2023-05-16T13:41:16;21.90;39.60
1411;DHT22;700;51.906;8.404;2023-05-16T13:46:20;22.90;41.60
1411;DHT22;700;51.906;8.404;2023-05-16T13:51:25;23.10;39.90
1411;DHT22;700;51.906;8.404;2023-05-16T13:56:26;24.40;39.50
1411;DHT22;700;51.906;8.404;2023-05-16T14:01:26;24.10;37.10
1411;DHT22;700;51.906;8.404;2023-05-16T14:06:27;24.50;37.50
1411;DHT22;700;51.906;8.404;2023-05-16T14:11:28;24.50;37.60
1411;DHT22;700;51.906;8.404;2023-05-16T14:16:31;25.30;36.70
1411;DHT22;700;51.906;8.404;2023-05-16T14:21:35;24.90;37.10
1411;DHT22;700;51.906;8.404;2023-05-16T14:26:40;24.10;36.60
1411;DHT22;700;51.906;8.404;2023-05-16T14:31:41;23.20;39.10
1411;DHT22;700;51.906;8.404;2023-05-16T14:36:46;22.20;39.30
1411;DHT22;700;51.906;8.404;2023-05-16T14:41:47;21.50;41.50
1411;DHT22;700;51.906;8.404;2023-05-16T14:46:47;21.20;43.30
1411;DHT22;700;51.906;8.404;2023-05-16T14:51:48;21.10;44.80
1411;DHT22;700;51.906;8.404;2023-05-16T14:56:49;21.10;45.40
1411;DHT22;700;51.906;8.404;2023-05-16T15:01:50;21.20;43.50
1411;DHT22;700;51.906;8.404;2023-05-16T15:06:51;21.10;44.00
1411;DHT22;700;51.906;8.404;2023-05-16T15:11:54;20.60;44.60
1411;DHT22;700;51.906;8.404;2023-05-16T15:16:57;20.60;44.00
1411;DHT22;700;51.906;8.404;2023-05-16T15:21:58;20.60;44.40
1411;DHT22;700;51.906;8.404;2023-05-16T15:26:59;20.00;45.50
1411;DHT22;700;51.906;8.404;2023-05-16T15:32:03;19.80;45.30
1411;DHT22;700;51.906;8.404;2023-05-16T15:37:06;19.60;46.30
1411;DHT22;700;51.906;8.404;2023-05-16T15:42:07;19.30;46.20
1411;DHT22;700;51.906;8.404;2023-05-16T15:47:12;19.20;47.90
1411;DHT22;700;51.906;8.404;2023-05-16T15:52:15;19.00;47.90
1411;DHT22;700;51.906;8.404;2023-05-16T15:57:16;18.80;48.20
1411;DHT22;700;51.906;8.404;2023-05-16T16:02:17;18.90;49.10
1411;DHT22;700;51.906;8.404;2023-05-16T16:07:17;19.20;47.80
1411;DHT22;700;51.906;8.404;2023-05-16T16:12:18;19.30;48.10
1411;DHT22;700;51.906;8.404;2023-05-16T16:17:18;19.10;48.40
1411;DHT22;700;51.906;8.404;2023-05-16T16:22:19;19.10;48.00
1411;DHT22;700;51.906;8.404;2023-05-16T16:27:20;18.90;48.30
1411;DHT22;700;51.906;8.404;2023-05-16T16:32:23;18.60;49.20
1411;DHT22;700;51.906;8.404;2023-05-16T16:37:23;18.50;48.40
1411;DHT22;700;51.906;8.404;2023-05-16T16:42:26;18.60;49.80
1411;DHT22;700;51.906;8.404;2023-05-16T16:47:29;18.50;50.10
1411;DHT22;700;51.906;8.404;2023-05-16T16:52:31;18.50;50.00
1411;DHT22;700;51.906;8.404;2023-05-16T16:57:35;18.40;51.00
1411;DHT22;700;51.906;8.404;2023-05-16T17:02:38;18.00;50.90
1411;DHT22;700;51.906;8.404;2023-05-16T17:07:38;18.20;51.10
1411;DHT22;700;51.906;8.404;2023-05-16T17:12:41;18.20;51.30
1411;DHT22;700;51.906;8.404;2023-05-16T17:17:48;18.00;51.10
1411;DHT22;700;51.906;8.404;2023-05-16T17:22:53;17.80;52.10
1411;DHT22;700;51.906;8.404;2023-05-16T17:27:55;17.70;52.80
1411;DHT22;700;51.906;8.404;2023-05-16T17:33:02;17.50;54.00
1411;DHT22;700;51.906;8.404;2023-05-16T17:38:05;17.50;54.70
1411;DHT22;700;51.906;8.404;2023-05-16T17:43:05;17.30;56.20
1411;DHT22;700;51.906;8.404;2023-05-16T17:48:06;17.20;58.00
1411;DHT22;700;51.906;8.404;2023-05-16T17:53:07;17.10;58.90
1411;DHT22;700;51.906;8.404;2023-05-16T17:58:08;17.00;60.60
1411;DHT22;700;51.906;8.404;2023-05-16T18:03:11;17.00;62.50
1411;DHT22;700;51.906;8.404;2023-05-16T18:08:14;16.80;63.90
1411;DHT22;700;51.906;8.404;2023-05-16T18:13:15;16.70;66.90
1411;DHT22;700;51.906;8.404;2023-05-16T18:18:21;16.60;68.60
1411;DHT22;700;51.906;8.404;2023-05-16T18:23:22;16.50;70.80
1411;DHT22;700;51.906;8.404;2023-05-16T18:28:26;16.30;73.70
1411;DHT22;700;51.906;8.404;2023-05-16T18:33:28;16.00;76.10
1411;DHT22;700;51.906;8.404;2023-05-16T18:38:29;16.10;80.50
1411;DHT22;700;51.906;8.404;2023-05-16T18:43:32;16.00;82.70
1411;DHT22;700;51.906;8.404;2023-05-16T18:48:36;16.00;85.10
1411;DHT22;700;51.906;8.404;2023-05-16T18:53:36;15.90;86.00
1411;DHT22;700;51.906;8.404;2023-05-16T18:58:37;15.80;86.60
1411;DHT22;700;51.906;8.404;2023-05-16T19:03:37;15.80;88.40
1411;DHT22;700;51.906;8.404;2023-05-16T19:08:39;15.70;90.00
1411;DHT22;700;51.906;8.404;2023-05-16T19:13:44;15.60;90.10
1411;DHT22;700;51.906;8.404;2023-05-16T19:18:48;15.60;90.60
1411;DHT22;700;51.906;8.404;2023-05-16T19:23:53;15.50;91.20
1411;DHT22;700;51.906;8.404;2023-05-16T19:28:54;15.40;92.00
1411;DHT22;700;51.906;8.404;2023-05-16T19:33:57;15.40;93.00
1411;DHT22;700;51.906;8.404;2023-05-16T19:39:00;15.20;92.90
1411;DHT22;700;51.906;8.404;2023-05-16T19:44:03;15.20;93.90
1411;DHT22;700;51.906;8.404;2023-05-16T19:49:04;15.30;94.80
1411;DHT22;700;51.906;8.404;2023-05-16T19:54:10;15.30;95.10
1411;DHT22;700;51.906;8.404;2023-05-16T19:59:10;15.20;95.40
1411;DHT22;700;51.906;8.404;2023-05-16T20:04:13;15.10;96.00
1411;DHT22;700;51.906;8.404;2023-05-16T20:09:14;14.90;97.20
1411;DHT22;700;51.906;8.404;2023-05-16T20:14:14;14.80;97.50
1411;DHT22;700;51.906;8.404;2023-05-16T20:19:15;14.90;98.00
1411;DHT22;700;51.906;8.404;2023-05-16T20:24:18;15.00;98.70
1411;DHT22;700;51.906;8.404;2023-05-16T20:29:18;14.90;99.60
1411;DHT22;700;51.906;8.404;2023-05-16T20:34:19;15.00;99.70
1411;DHT22;700;51.906;8.404;2023-05-16T20:39:20;14.90;99.90
1411;DHT22;700;51.906;8.404;2023-05-16T20:44:22;14.90;99.90
1411;DHT22;700;51.906;8.404;2023-05-16T20:49:23;14.90;99.90
1411;DHT22;700;51.906;8.404;2023-05-16T20:54:24;14.80;99.90
1411;DHT22;700;51.906;8.404;2023-05-16T20:59:24;14.90;99.90
1411;DHT22;700;51.906;8.404;2023-05-16T21:04:25;14.80;99.90
1411;DHT22;700;51.906;8.404;2023-05-16T21:09:26;14.70;99.90
1411;DHT22;700;51.906;8.404;2023-05-16T21:14:29;14.90;99.90
1411;DHT22;700;51.906;8.404;2023-05-16T21:19:29;14.90;99.90
1411;DHT22;700;51.906;8.404;2023-05-16T21:24:34;14.70;99.90
1411;DHT22;700;51.906;8.404;2023-05-16T21:29:36;14.70;99.90
1411;DHT22;700;51.906;8.404;2023-05-16T21:34:37;14.70;99.90
1411;DHT22;700;51.906;8.404;2023-05-16T21:39:38;14.60;99.90
1411;DHT22;700;51.906;8.404;2023-05-16T21:44:40;14.40;99.90
1411;DHT22;700;51.906;8.404;2023-05-16T21:49:43;14.30;99.90
1411;DHT22;700;51.906;8.404;2023-05-16T21:54:44;14.20;99.90
1411;DHT22;700;51.906;8.404;2023-05-16T21:59:50;14.00;99.90
1411;DHT22;700;51.906;8.404;2023-05-16T22:04:53;13.80;99.90
1411;DHT22;700;51.906;8.404;2023-05-16T22:09:59;13.70;99.90
1411;DHT22;700;51.906;8.404;2023-05-16T22:15:00;13.50;99.90
1411;DHT22;700;51.906;8.404;2023-05-16T22:20:01;13.50;99.90
1411;DHT22;700;51.906;8.404;2023-05-16T22:25:01;13.40;99.90
1411;DHT22;700;51.906;8.404;2023-05-16T22:30:03;13.30;99.90
1411;DHT22;700;51.906;8.404;2023-05-16T22:35:06;13.30;99.90
1411;DHT22;700;51.906;8.404;2023-05-16T22:40:09;13.30;99.90
1411;DHT22;700;51.906;8.404;2023-05-16T22:45:10;13.10;99.90
1411;DHT22;700;51.906;8.404;2023-05-16T22:50:11;13.10;99.90
1411;DHT22;700;51.906;8.404;2023-05-16T22:55:14;13.00;99.90
1411;DHT22;700;51.906;8.404;2023-05-16T23:00:15;13.00;99.90
1411;DHT22;700;51.906;8.404;2023-05-16T23:05:22;12.90;99.90
1411;DHT22;700;51.906;8.404;2023-05-16T23:10:22;12.90;99.90
1411;DHT22;700;51.906;8.404;2023-05-16T23:15:26;12.80;99.90
1411;DHT22;700;51.906;8.404;2023-05-16T23:20:26;12.70;99.90
1411;DHT22;700;51.906;8.404;2023-05-16T23:25:27;12.60;99.90
1411;DHT22;700;51.906;8.404;2023-05-16T23:30:28;12.70;99.90
1411;DHT22;700;51.906;8.404;2023-05-16T23:35:29;12.60;99.90
1411;DHT22;700;51.906;8.404;2023-05-16T23:40:30;12.70;99.90
1411;DHT22;700;51.906;8.404;2023-05-16T23:45:30;12.60;99.90
1411;DHT22;700;51.906;8.404;2023-05-16T23:50:31;12.60;99.90
1411;DHT22;700;51.906;8.404;2023-05-16T23:55:31;12.50;99.90
